Time,TemperatureF,DewpointF,PressureIn,WindDirection,WindDirectionDegrees,WindSpeedMPH,WindSpeedGustMPH,Humidity,HourlyPrecipIn,Conditions,Clouds,dailyrainin,SoftwareType,DateUTC
2013-04-12 00:00:00,69.6,67.3,29.87,SSW,213,8.0,12.0,92,0.00,,,0.00,meteohub,2013-04-12 04:00:00,
2013-04-12 00:05:00,69.8,67.3,29.87,SSW,207,5.0,12.0,92,-99.99,,,0.00,meteohub,2013-04-12 04:05:00,
2013-04-12 00:10:00,70.0,67.5,29.87,SSW,208,5.0,12.0,92,0.00,,,0.00,meteohub,2013-04-12 04:10:00,
2013-04-12 00:15:00,70.0,67.3,29.86,SSW,194,1.0,10.0,91,0.00,,,0.00,meteohub,2013-04-12 04:15:00,
2013-04-12 00:20:00,70.0,67.3,29.86,SW,229,3.0,10.0,91,0.00,,,0.00,meteohub,2013-04-12 04:20:00,
2013-04-12 00:25:00,70.0,67.3,29.86,NNE,27,2.0,10.0,91,0.00,,,0.00,meteohub,2013-04-12 04:25:00,
2013-04-12 00:30:00,70.0,67.3,29.86,WSW,242,4.0,10.0,91,0.00,,,0.00,meteohub,2013-04-12 04:30:00,
2013-04-12 00:35:00,70.2,67.5,29.86,SSW,211,7.0,10.0,91,0.00,,,0.00,meteohub,2013-04-12 04:35:00,
2013-04-12 00:40:00,70.3,67.6,29.86,SSW,200,6.0,12.0,91,0.00,,,0.00,meteohub,2013-04-12 04:40:00,
2013-04-12 00:45:00,70.3,67.3,29.87,West,259,5.0,12.0,90,0.00,,,0.00,meteohub,2013-04-12 04:45:00,
2013-04-12 00:50:00,70.3,67.3,29.87,SW,231,2.0,14.0,90,0.00,,,0.00,meteohub,2013-04-12 04:50:00,
2013-04-12 00:55:00,70.5,67.5,29.87,SW,216,10.0,14.0,90,0.00,,,0.00,meteohub,2013-04-12 04:55:00,
2013-04-12 01:00:00,70.5,67.5,29.87,SSW,194,4.0,12.0,90,0.00,,,0.00,meteohub,2013-04-12 05:00:00,
2013-04-12 01:05:00,70.3,67.3,29.87,SW,224,5.0,12.0,90,0.00,,,0.00,meteohub,2013-04-12 05:05:00,
2013-04-12 01:10:00,70.3,67.3,29.87,WSW,246,4.0,12.0,90,0.00,,,0.00,meteohub,2013-04-12 05:10:00,
2013-04-12 01:15:00,70.3,67.3,29.87,West,264,3.0,13.0,90,0.00,,,0.00,meteohub,2013-04-12 05:15:00,
2013-04-12 01:20:00,70.5,67.5,29.87,SSE,158,8.0,13.0,90,0.00,,,0.00,meteohub,2013-04-12 05:20:00,
2013-04-12 01:25:00,70.5,67.5,29.87,West,273,3.0,12.0,90,0.00,,,0.00,meteohub,2013-04-12 05:25:00,
2013-04-12 01:30:00,70.5,67.1,29.87,SW,227,7.0,12.0,89,0.00,,,0.00,meteohub,2013-04-12 05:30:00,
2013-04-12 01:35:00,70.5,67.1,29.87,SSW,211,4.0,14.0,89,0.00,,,0.00,meteohub,2013-04-12 05:35:00,
2013-04-12 01:40:00,70.5,67.1,29.86,SSW,205,9.0,14.0,89,0.00,,,0.00,meteohub,2013-04-12 05:40:00,
2013-04-12 01:45:00,70.7,67.3,29.86,SW,214,9.0,14.0,89,0.00,,,0.00,meteohub,2013-04-12 05:45:00,
2013-04-12 01:50:00,70.7,67.3,29.86,WSW,243,1.0,14.0,89,0.00,,,0.00,meteohub,2013-04-12 05:50:00,
2013-04-12 01:55:00,70.7,66.9,29.86,SSW,211,1.0,12.0,88,0.00,,,0.00,meteohub,2013-04-12 05:55:00,
2013-04-12 02:00:00,70.7,66.9,29.86,SSW,202,7.0,12.0,88,0.00,,,0.00,meteohub,2013-04-12 06:00:00,
2013-04-12 02:05:00,70.7,66.9,29.86,SW,229,9.0,12.0,88,0.00,,,0.00,meteohub,2013-04-12 06:05:00,
2013-04-12 02:10:00,70.5,66.7,29.86,SW,215,3.0,15.0,88,0.00,,,0.00,meteohub,2013-04-12 06:10:00,
2013-04-12 02:15:00,70.5,66.7,29.86,WSW,248,3.0,16.0,88,0.00,,,0.00,meteohub,2013-04-12 06:15:00,
2013-04-12 02:20:00,70.5,66.7,29.86,South,175,5.0,16.0,88,0.00,,,0.00,meteohub,2013-04-12 06:20:00,
2013-04-12 02:25:00,70.5,66.7,29.86,SSW,211,4.0,15.0,88,0.00,,,0.00,meteohub,2013-04-12 06:25:00,
2013-04-12 02:30:00,70.5,66.7,29.85,WSW,242,6.0,15.0,88,0.00,,,0.00,meteohub,2013-04-12 06:30:00,
2013-04-12 02:35:00,70.5,67.1,29.85,South,183,10.0,15.0,89,0.00,,,0.00,meteohub,2013-04-12 06:35:00,
2013-04-12 02:40:00,70.5,67.1,29.85,SW,223,3.0,15.0,89,0.00,,,0.00,meteohub,2013-04-12 06:40:00,
2013-04-12 02:45:00,70.5,67.1,29.85,SW,214,6.0,16.0,89,0.00,,,0.00,meteohub,2013-04-12 06:45:00,
2013-04-12 02:50:00,70.5,67.1,29.85,WSW,254,4.0,16.0,89,0.00,,,0.00,meteohub,2013-04-12 06:50:00,
2013-04-12 02:55:00,70.5,66.7,29.85,West,271,5.0,17.0,88,0.00,,,0.00,meteohub,2013-04-12 06:55:00,
2013-04-12 03:00:00,70.7,66.9,29.85,NW,310,4.0,17.0,88,0.00,,,0.00,meteohub,2013-04-12 07:00:00,
2013-04-12 03:05:00,70.9,67.1,29.84,WSW,254,1.0,17.0,88,0.00,,,0.00,meteohub,2013-04-12 07:05:00,
2013-04-12 03:10:00,70.7,66.9,29.84,South,176,6.0,16.0,88,0.00,,,0.00,meteohub,2013-04-12 07:10:00,
2013-04-12 03:15:00,70.5,66.7,29.83,West,267,5.0,16.0,88,0.00,,,0.00,meteohub,2013-04-12 07:15:00,
2013-04-12 03:20:00,70.2,66.7,29.83,WSW,239,8.0,16.0,89,0.00,,,0.00,meteohub,2013-04-12 07:20:00,
2013-04-12 03:25:00,70.0,66.6,29.83,SW,227,5.0,15.0,89,0.00,,,0.00,meteohub,2013-04-12 07:25:00,
2013-04-12 03:30:00,69.4,66.0,29.83,South,181,10.0,15.0,89,0.00,,,0.00,meteohub,2013-04-12 07:30:00,
2013-04-12 03:35:00,69.3,66.2,29.83,SSE,166,7.0,16.0,90,0.00,,,0.00,meteohub,2013-04-12 07:35:00,
2013-04-12 03:40:00,69.1,66.0,29.83,SW,227,9.0,16.0,90,0.00,,,0.00,meteohub,2013-04-12 07:40:00,
2013-04-12 03:45:00,68.9,65.8,29.83,SSW,192,7.0,16.0,90,0.00,,,0.00,meteohub,2013-04-12 07:45:00,
2013-04-12 03:50:00,68.9,65.8,29.83,WSW,245,4.0,16.0,90,0.00,,,0.00,meteohub,2013-04-12 07:50:00,
2013-04-12 03:55:00,68.7,65.7,29.83,South,185,7.0,15.0,90,0.00,,,0.00,meteohub,2013-04-12 07:55:00,
2013-04-12 04:01:00,68.7,65.7,29.83,SW,216,8.0,15.0,90,0.00,,,0.00,meteohub,2013-04-12 08:01:00,
2013-04-12 04:06:00,68.5,65.5,29.83,WNW,297,2.0,15.0,90,0.00,,,0.00,meteohub,2013-04-12 08:06:00,
2013-04-12 04:11:00,68.4,65.3,29.83,SW,235,3.0,16.0,90,0.00,,,0.00,meteohub,2013-04-12 08:11:00,
2013-04-12 04:16:00,68.4,65.3,29.82,SSW,213,6.0,14.0,90,0.00,,,0.00,meteohub,2013-04-12 08:16:00,
2013-04-12 04:21:00,68.2,65.1,29.82,WNW,289,2.0,14.0,90,0.00,,,0.00,meteohub,2013-04-12 08:21:00,
2013-04-12 04:26:00,68.2,65.1,29.82,SSW,202,3.0,12.0,90,0.00,,,0.00,meteohub,2013-04-12 08:26:00,
2013-04-12 04:31:00,68.2,64.8,29.81,SW,230,4.0,12.0,89,0.00,,,0.00,meteohub,2013-04-12 08:31:00,
2013-04-12 04:37:00,68.2,64.8,29.81,SW,224,4.0,13.0,89,0.00,,,0.00,meteohub,2013-04-12 08:37:00,
2013-04-12 04:42:00,68.2,64.8,29.81,SE,143,2.0,13.0,89,0.00,,,0.00,meteohub,2013-04-12 08:42:00,
2013-04-12 04:47:00,68.0,64.6,29.82,SW,220,1.0,13.0,89,0.00,,,0.00,meteohub,2013-04-12 08:47:00,
2013-04-12 04:52:00,67.8,64.4,29.82,West,277,5.0,13.0,89,0.00,,,0.00,meteohub,2013-04-12 08:52:00,
2013-04-12 04:57:00,68.0,64.6,29.82,SE,134,13.0,15.0,89,0.00,,,0.00,meteohub,2013-04-12 08:57:00,
2013-04-12 05:02:00,68.0,64.6,29.82,SSW,203,8.0,15.0,89,0.00,,,0.00,meteohub,2013-04-12 09:02:00,
2013-04-12 05:07:00,67.8,64.8,29.82,SW,217,3.0,15.0,90,0.00,,,0.00,meteohub,2013-04-12 09:07:00,
2013-04-12 05:12:00,67.8,64.8,29.81,SSW,213,5.0,13.0,90,0.00,,,0.00,meteohub,2013-04-12 09:12:00,
2013-04-12 05:17:00,67.8,64.8,29.81,SW,232,2.0,13.0,90,0.00,,,0.00,meteohub,2013-04-12 09:17:00,
2013-04-12 05:22:00,67.8,64.8,29.81,WSW,243,4.0,13.0,90,0.00,,,0.00,meteohub,2013-04-12 09:22:00,
2013-04-12 05:27:00,68.2,65.1,29.81,SW,229,5.0,13.0,90,0.00,,,0.00,meteohub,2013-04-12 09:27:00,
2013-04-12 05:32:00,68.2,65.1,29.81,WSW,244,2.0,17.0,90,0.00,,,0.00,meteohub,2013-04-12 09:32:00,
2013-04-12 05:37:00,68.2,65.1,29.81,West,271,3.0,17.0,90,0.00,,,0.00,meteohub,2013-04-12 09:37:00,
2013-04-12 05:42:00,68.2,65.1,29.82,South,189,4.0,17.0,90,0.00,,,0.00,meteohub,2013-04-12 09:42:00,
2013-04-12 05:47:00,68.2,65.1,29.82,SSW,209,7.0,17.0,90,0.00,,,0.00,meteohub,2013-04-12 09:47:00,
2013-04-12 05:52:00,68.4,65.3,29.82,SW,222,4.0,17.0,90,0.00,,,0.00,meteohub,2013-04-12 09:52:00,
2013-04-12 05:57:00,68.5,65.5,29.83,SSW,204,4.0,10.0,90,0.00,,,0.00,meteohub,2013-04-12 09:57:00,
2013-04-12 06:02:00,68.5,65.5,29.83,SW,232,5.0,10.0,90,0.00,,,0.00,meteohub,2013-04-12 10:02:00,
2013-04-12 06:07:00,68.9,65.8,29.83,West,261,1.0,10.0,90,0.00,,,0.00,meteohub,2013-04-12 10:07:00,
2013-04-12 06:12:00,69.1,66.4,29.83,SW,223,5.0,11.0,91,0.01,,,0.00,meteohub,2013-04-12 10:12:00,
2013-04-12 06:17:00,68.9,66.6,29.83,South,189,3.0,11.0,92,0.01,,,0.00,meteohub,2013-04-12 10:17:00,
2013-04-12 06:22:00,68.7,66.6,29.83,WSW,240,2.0,11.0,93,0.01,,,0.06,meteohub,2013-04-12 10:22:00,
2013-04-12 06:27:00,68.5,66.4,29.83,SSW,197,6.0,11.0,93,0.01,,,0.06,meteohub,2013-04-12 10:27:00,
2013-04-12 06:32:00,68.4,66.2,29.79,East,82,2.0,9.0,93,0.09,,,0.06,meteohub,2013-04-12 10:32:00,
2013-04-12 06:38:00,68.0,66.2,29.81,WSW,247,2.0,9.0,94,0.09,,,0.06,meteohub,2013-04-12 10:38:00,
2013-04-12 06:43:00,67.8,66.0,29.83,WSW,254,1.0,9.0,94,0.09,,,0.11,meteohub,2013-04-12 10:43:00,
2013-04-12 06:48:00,68.0,66.2,29.81,WSW,249,4.0,9.0,94,0.09,,,0.11,meteohub,2013-04-12 10:48:00,
2013-04-12 06:52:00,67.8,66.0,29.81,SSW,194,6.0,12.0,94,0.12,,,0.11,meteohub,2013-04-12 10:52:00,
2013-04-12 06:58:00,67.8,66.0,29.81,South,171,1.0,12.0,94,0.12,,,0.11,meteohub,2013-04-12 10:58:00,
2013-04-12 07:03:00,67.8,66.0,29.82,West,266,5.0,12.0,94,0.12,,,0.11,meteohub,2013-04-12 11:03:00,
2013-04-12 07:07:00,67.6,66.2,29.83,SW,220,3.0,12.0,95,0.12,,,0.12,meteohub,2013-04-12 11:07:00,
2013-04-12 07:13:00,67.5,66.0,29.83,SW,224,7.0,12.0,95,0.13,,,0.12,meteohub,2013-04-12 11:13:00,
2013-04-12 07:18:00,67.5,66.0,29.83,SSW,210,3.0,12.0,95,0.13,,,0.12,meteohub,2013-04-12 11:18:00,
2013-04-12 07:23:00,67.3,65.8,29.82,WSW,253,2.0,12.0,95,0.13,,,0.12,meteohub,2013-04-12 11:23:00,
2013-04-12 07:28:00,67.3,65.8,29.82,SSW,205,2.0,12.0,95,0.13,,,0.17,meteohub,2013-04-12 11:28:00,
2013-04-12 07:33:00,67.3,66.0,29.82,South,186,4.0,12.0,96,0.09,,,0.17,meteohub,2013-04-12 11:33:00,
2013-04-12 07:38:00,67.1,65.8,29.82,SW,222,11.0,13.0,96,0.09,,,0.17,meteohub,2013-04-12 11:38:00,
2013-04-12 07:43:00,67.3,66.0,29.82,WSW,237,6.0,13.0,96,0.09,,,0.17,meteohub,2013-04-12 11:43:00,
2013-04-12 07:48:00,67.3,66.0,29.82,SW,222,5.0,13.0,96,0.09,,,0.38,meteohub,2013-04-12 11:48:00,
2013-04-12 07:53:00,67.5,66.6,29.82,NE,51,2.0,13.0,97,0.35,,,0.38,meteohub,2013-04-12 11:53:00,
2013-04-12 07:58:00,67.6,66.7,29.81,SSW,207,0.0,16.0,97,0.35,,,0.38,meteohub,2013-04-12 11:58:00,
2013-04-12 08:03:00,67.6,66.7,29.81,SSW,207,0.0,16.0,97,0.35,,,0.57,meteohub,2013-04-12 12:03:00,
2013-04-12 08:08:00,67.6,66.7,29.82,WSW,248,2.0,16.0,97,0.35,,,0.57,meteohub,2013-04-12 12:08:00,
2013-04-12 08:13:00,67.8,66.9,29.82,SW,216,6.0,10.0,97,0.48,,,0.57,meteohub,2013-04-12 12:13:00,
2013-04-12 08:18:00,67.6,66.7,29.81,ENE,71,0.0,10.0,97,0.48,,,0.83,meteohub,2013-04-12 12:18:00,
2013-04-12 08:23:00,67.6,66.7,29.81,ESE,114,0.0,11.0,97,0.75,,,0.83,meteohub,2013-04-12 12:23:00,
2013-04-12 08:28:00,67.6,66.7,29.81,SE,138,0.0,11.0,97,0.75,,,0.83,meteohub,2013-04-12 12:28:00,
2013-04-12 08:33:00,67.5,66.6,29.80,SW,219,2.0,11.0,97,0.75,,,1.13,meteohub,2013-04-12 12:33:00,
2013-04-12 08:38:00,67.6,66.7,29.81,WSW,250,2.0,11.0,97,0.93,,,1.13,meteohub,2013-04-12 12:38:00,
2013-04-12 08:43:00,67.6,66.7,29.81,SSW,197,2.0,11.0,97,0.93,,,1.13,meteohub,2013-04-12 12:43:00,
2013-04-12 08:48:00,67.6,66.7,29.81,WSW,242,0.0,11.0,97,0.93,,,1.24,meteohub,2013-04-12 12:48:00,
2013-04-12 08:53:00,67.5,66.6,29.82,SW,230,0.0,13.0,97,0.83,,,1.24,meteohub,2013-04-12 12:53:00,
2013-04-12 08:58:00,67.5,66.6,29.82,SSW,207,2.0,13.0,97,0.83,,,1.24,meteohub,2013-04-12 12:58:00,
2013-04-12 09:03:00,67.6,66.7,29.82,South,189,0.0,13.0,97,0.83,,,1.33,meteohub,2013-04-12 13:03:00,
2013-04-12 09:08:00,67.6,66.7,29.81,SSW,207,1.0,13.0,97,0.78,,,1.33,meteohub,2013-04-12 13:08:00,
2013-04-12 09:13:00,67.8,66.9,29.81,SSW,200,4.0,5.0,97,0.78,,,1.33,meteohub,2013-04-12 13:13:00,
2013-04-12 09:18:00,67.8,66.9,29.81,SW,235,1.0,5.0,97,0.78,,,1.41,meteohub,2013-04-12 13:18:00,
2013-04-12 09:23:00,68.0,67.1,29.80,South,186,0.0,6.0,97,0.50,,,1.41,meteohub,2013-04-12 13:23:00,
2013-04-12 09:28:00,68.2,67.3,29.80,SW,219,0.0,6.0,97,0.50,,,1.41,meteohub,2013-04-12 13:28:00,
2013-04-12 09:33:00,68.2,67.3,29.80,SSW,192,5.0,6.0,97,0.50,,,1.41,meteohub,2013-04-12 13:33:00,
2013-04-12 09:38:00,68.5,68.0,29.80,SSW,207,1.0,6.0,98,0.26,,,1.41,meteohub,2013-04-12 13:38:00,
2013-04-12 09:43:00,68.5,67.6,29.80,SSW,195,4.0,6.0,97,0.26,,,1.41,meteohub,2013-04-12 13:43:00,
2013-04-12 09:48:00,68.7,67.8,29.80,SW,215,4.0,6.0,97,0.26,,,1.41,meteohub,2013-04-12 13:48:00,
2013-04-12 09:53:00,68.9,68.0,29.79,South,189,2.0,7.0,97,0.15,,,1.41,meteohub,2013-04-12 13:53:00,
2013-04-12 09:58:00,69.3,68.7,29.79,SW,223,3.0,7.0,98,0.15,,,1.41,meteohub,2013-04-12 13:58:00,
2013-04-12 10:03:00,69.8,68.9,29.79,SSW,205,5.0,7.0,97,0.15,,,1.41,meteohub,2013-04-12 14:03:00,
2013-04-12 10:08:00,69.8,68.9,29.80,SW,218,4.0,7.0,97,0.05,,,1.41,meteohub,2013-04-12 14:08:00,
2013-04-12 10:13:00,70.0,69.1,29.80,WSW,238,3.0,7.0,97,0.00,,,1.41,meteohub,2013-04-12 14:13:00,
2013-04-12 10:18:00,70.2,69.3,29.80,West,270,4.0,8.0,97,0.00,,,1.41,meteohub,2013-04-12 14:18:00,
2013-04-12 10:23:00,70.0,69.1,29.80,SSW,213,3.0,8.0,97,0.00,,,1.43,meteohub,2013-04-12 14:23:00,
2013-04-12 10:28:00,70.0,69.1,29.80,SW,234,4.0,8.0,97,0.07,,,1.43,meteohub,2013-04-12 14:28:00,
2013-04-12 10:33:00,70.0,69.1,29.80,WSW,250,5.0,8.0,97,0.07,,,1.48,meteohub,2013-04-12 14:33:00,
2013-04-12 10:38:00,70.0,69.1,29.80,SSW,201,4.0,10.0,97,0.07,,,1.48,meteohub,2013-04-12 14:38:00,
2013-04-12 10:43:00,70.0,69.1,29.80,SW,218,2.0,10.0,97,0.07,,,1.48,meteohub,2013-04-12 14:43:00,
2013-04-12 10:49:00,70.0,69.1,29.80,SSW,210,0.0,10.0,97,0.07,,,1.48,meteohub,2013-04-12 14:49:00,
2013-04-12 10:54:00,69.8,68.9,29.80,SSW,206,0.0,10.0,97,0.08,,,1.49,meteohub,2013-04-12 14:54:00,
2013-04-12 10:59:00,69.8,68.9,29.80,SW,236,0.0,7.0,97,0.08,,,1.49,meteohub,2013-04-12 14:59:00,
2013-04-12 11:04:00,69.8,68.9,29.80,SSW,205,0.0,7.0,97,0.08,,,1.49,meteohub,2013-04-12 15:04:00,
2013-04-12 11:09:00,69.8,68.9,29.81,SW,223,0.0,5.0,97,0.09,,,1.49,meteohub,2013-04-12 15:09:00,
2013-04-12 11:14:00,70.0,69.1,29.80,South,188,0.0,5.0,97,0.10,,,1.50,meteohub,2013-04-12 15:14:00,
2013-04-12 11:19:00,70.0,69.1,29.80,SW,215,0.0,5.0,97,0.10,,,1.50,meteohub,2013-04-12 15:19:00,
2013-04-12 11:24:00,70.0,69.1,29.80,SSW,205,0.0,5.0,97,0.10,,,1.51,meteohub,2013-04-12 15:24:00,
2013-04-12 11:29:00,70.2,69.3,29.80,SW,222,2.0,4.0,97,0.03,,,1.51,meteohub,2013-04-12 15:29:00,
2013-04-12 11:34:00,70.2,69.3,29.80,SW,223,2.0,4.0,97,0.03,,,1.51,meteohub,2013-04-12 15:34:00,
2013-04-12 11:39:00,70.3,69.4,29.80,WSW,250,5.0,10.0,97,0.03,,,1.51,meteohub,2013-04-12 15:39:00,
2013-04-12 11:44:00,70.5,69.6,29.80,SW,227,4.0,10.0,97,0.03,,,1.51,meteohub,2013-04-12 15:44:00,
2013-04-12 11:49:00,70.9,70.0,29.80,WSW,249,6.0,10.0,97,0.03,,,1.51,meteohub,2013-04-12 15:49:00,
2013-04-12 11:54:00,71.1,70.2,29.79,West,259,6.0,10.0,97,0.02,,,1.51,meteohub,2013-04-12 15:54:00,
2013-04-12 11:59:00,71.8,70.9,29.79,SW,225,6.0,13.0,97,0.02,,,1.51,meteohub,2013-04-12 15:59:00,
2013-04-12 12:04:00,72.3,71.4,29.79,SW,224,5.0,13.0,97,0.02,,,1.51,meteohub,2013-04-12 16:04:00,
2013-04-12 12:09:00,73.0,71.8,29.79,WSW,255,6.0,11.0,96,0.01,,,1.51,meteohub,2013-04-12 16:09:00,
2013-04-12 12:14:00,73.0,71.6,29.79,South,188,7.0,11.0,95,0.00,,,1.51,meteohub,2013-04-12 16:14:00,
2013-04-12 12:19:00,73.0,70.9,29.79,SW,236,5.0,16.0,93,0.00,,,1.51,meteohub,2013-04-12 16:19:00,
2013-04-12 12:24:00,73.0,70.9,29.79,West,265,9.0,16.0,93,0.00,,,1.51,meteohub,2013-04-12 16:24:00,
2013-04-12 12:29:00,73.2,71.1,29.79,SW,215,2.0,19.0,93,0.00,,,1.51,meteohub,2013-04-12 16:29:00,
2013-04-12 12:34:00,73.2,71.1,29.79,SW,231,6.0,19.0,93,0.00,,,1.51,meteohub,2013-04-12 16:34:00,
2013-04-12 12:39:00,73.2,71.1,29.78,West,268,6.0,19.0,93,0.00,,,1.51,meteohub,2013-04-12 16:39:00,
2013-04-12 12:44:00,73.8,71.6,29.78,West,267,5.0,14.0,93,0.00,,,1.51,meteohub,2013-04-12 16:44:00,
2013-04-12 12:49:00,74.5,72.0,29.78,WSW,256,5.0,14.0,92,0.00,,,1.51,meteohub,2013-04-12 16:49:00,
2013-04-12 12:54:00,75.0,72.1,29.78,SW,227,13.0,14.0,91,0.00,,,1.51,meteohub,2013-04-12 16:54:00,
2013-04-12 12:59:00,75.0,72.0,29.78,West,279,7.0,16.0,90,0.00,,,1.51,meteohub,2013-04-12 16:59:00,
2013-04-12 13:04:00,75.4,72.0,29.77,West,262,10.0,16.0,89,0.00,,,1.51,meteohub,2013-04-12 17:04:00,
2013-04-12 13:09:00,75.9,72.5,29.76,WNW,284,6.0,16.0,89,0.00,,,1.51,meteohub,2013-04-12 17:09:00,
2013-04-12 13:14:00,76.6,73.2,29.76,West,281,12.0,16.0,89,0.00,,,1.51,meteohub,2013-04-12 17:14:00,
2013-04-12 13:19:00,76.6,72.1,29.75,West,263,5.0,17.0,86,0.00,,,1.51,meteohub,2013-04-12 17:19:00,
2013-04-12 13:24:00,76.8,72.3,29.75,WSW,255,5.0,17.0,86,0.00,,,1.51,meteohub,2013-04-12 17:24:00,
2013-04-12 13:29:00,77.2,72.3,29.75,SW,233,10.0,17.0,85,0.00,,,1.51,meteohub,2013-04-12 17:29:00,
2013-04-12 13:34:00,77.2,72.3,29.75,West,267,8.0,17.0,85,0.00,,,1.51,meteohub,2013-04-12 17:34:00,
2013-04-12 13:42:00,77.2,72.0,29.75,SW,219,5.0,17.0,84,0.00,,,1.51,meteohub,2013-04-12 17:42:00,
2013-04-12 13:47:00,77.7,72.1,29.75,SW,235,16.0,17.0,83,0.00,,,1.51,meteohub,2013-04-12 17:47:00,
2013-04-12 13:52:00,77.9,72.0,29.74,SW,232,8.0,17.0,82,0.00,,,1.51,meteohub,2013-04-12 17:52:00,
2013-04-12 14:02:00,78.4,72.1,29.73,SW,214,7.0,20.0,81,0.00,,,1.51,meteohub,2013-04-12 18:02:00,
2013-04-12 14:07:00,78.6,72.3,29.73,WSW,252,11.0,17.0,81,0.00,,,1.51,meteohub,2013-04-12 18:07:00,
2013-04-12 14:12:00,78.6,72.0,29.73,WSW,256,8.0,17.0,80,0.00,,,1.51,meteohub,2013-04-12 18:12:00,
2013-04-12 14:20:00,79.2,72.1,29.73,WSW,241,12.0,22.0,79,0.00,,,1.51,meteohub,2013-04-12 18:20:00,
2013-04-12 14:25:00,79.3,72.3,29.73,SW,229,6.0,22.0,79,0.00,,,1.51,meteohub,2013-04-12 18:25:00,
2013-04-12 15:27:00,78.1,71.8,29.71,West,263,9.0,23.0,81,0.00,,,1.51,meteohub,2013-04-12 19:27:00,
2013-04-12 15:32:00,78.4,72.1,29.71,West,263,11.0,23.0,81,0.00,,,1.51,meteohub,2013-04-12 19:32:00,
2013-04-12 15:37:00,78.6,72.0,29.71,NW,306,8.0,23.0,80,0.00,,,1.51,meteohub,2013-04-12 19:37:00,
2013-04-12 15:42:00,78.1,71.4,29.70,WNW,292,13.0,23.0,80,0.00,,,1.51,meteohub,2013-04-12 19:42:00,
2013-04-12 15:47:00,77.2,71.2,29.70,SSW,193,10.0,26.0,82,0.00,,,1.51,meteohub,2013-04-12 19:47:00,
2013-04-12 15:52:00,77.0,71.4,29.70,WSW,252,4.0,26.0,83,0.00,,,1.51,meteohub,2013-04-12 19:52:00,
2013-04-12 15:57:00,76.8,71.2,29.70,SW,229,13.0,26.0,83,0.00,,,1.51,meteohub,2013-04-12 19:57:00,
2013-04-12 16:02:00,76.5,71.2,29.70,WSW,238,8.0,26.0,84,0.00,,,1.51,meteohub,2013-04-12 20:02:00,
2013-04-12 16:07:00,76.1,70.9,29.70,SW,221,6.0,16.0,84,0.00,,,1.51,meteohub,2013-04-12 20:07:00,
2013-04-12 16:12:00,75.7,70.5,29.70,SW,235,8.0,16.0,84,0.00,,,1.51,meteohub,2013-04-12 20:12:00,
2013-04-12 16:17:00,75.7,70.9,29.70,SSW,206,12.0,16.0,85,0.00,,,1.51,meteohub,2013-04-12 20:17:00,
2013-04-12 16:22:00,75.6,70.7,29.70,SW,217,8.0,16.0,85,0.00,,,1.51,meteohub,2013-04-12 20:22:00,
2013-04-12 16:27:00,75.2,70.7,29.70,SE,143,9.0,16.0,86,0.00,,,1.51,meteohub,2013-04-12 20:27:00,
2013-04-12 16:32:00,75.2,70.7,29.70,SW,227,3.0,16.0,86,0.00,,,1.51,meteohub,2013-04-12 20:32:00,
2013-04-12 16:37:00,75.2,70.7,29.70,WSW,251,6.0,17.0,86,0.00,,,1.51,meteohub,2013-04-12 20:37:00,
2013-04-12 16:42:00,75.2,70.7,29.70,West,268,7.0,17.0,86,0.00,,,1.51,meteohub,2013-04-12 20:42:00,
2013-04-12 16:47:00,75.2,70.7,29.69,SSW,209,6.0,16.0,86,0.00,,,1.51,meteohub,2013-04-12 20:47:00,
2013-04-12 16:52:00,75.2,70.3,29.70,WSW,248,3.0,16.0,85,0.00,,,1.51,meteohub,2013-04-12 20:52:00,
2013-04-12 16:57:00,75.0,70.2,29.70,West,259,7.0,16.0,85,0.00,,,1.51,meteohub,2013-04-12 20:57:00,
2013-04-12 17:02:00,74.8,70.3,29.70,West,260,5.0,16.0,86,0.00,,,1.51,meteohub,2013-04-12 21:02:00,
2013-04-12 17:07:00,74.7,70.2,29.70,West,261,8.0,19.0,86,0.00,,,1.51,meteohub,2013-04-12 21:07:00,
2013-04-12 17:12:00,74.5,70.0,29.70,WSW,251,7.0,19.0,86,0.00,,,1.51,meteohub,2013-04-12 21:12:00,
2013-04-12 17:17:00,74.1,70.0,29.70,WSW,250,8.0,22.0,87,0.00,,,1.51,meteohub,2013-04-12 21:17:00,
2013-04-12 17:22:00,73.9,69.8,29.70,WSW,252,8.0,22.0,87,0.00,,,1.51,meteohub,2013-04-12 21:22:00,
2013-04-12 17:27:00,73.9,69.8,29.70,SW,226,7.0,22.0,87,0.00,,,1.51,meteohub,2013-04-12 21:27:00,
2013-04-12 17:32:00,73.8,70.0,29.70,West,279,11.0,22.0,88,0.00,,,1.51,meteohub,2013-04-12 21:32:00,
2013-04-12 17:37:00,73.8,70.0,29.70,SW,214,7.0,18.0,88,0.00,,,1.51,meteohub,2013-04-12 21:37:00,
2013-04-12 17:42:00,73.8,70.0,29.70,West,275,9.0,18.0,88,0.00,,,1.51,meteohub,2013-04-12 21:42:00,
2013-04-12 17:47:00,73.8,70.0,29.70,SSW,213,8.0,17.0,88,0.00,,,1.51,meteohub,2013-04-12 21:47:00,
2013-04-12 17:52:00,73.8,70.0,29.71,WSW,243,17.0,17.0,88,0.00,,,1.51,meteohub,2013-04-12 21:52:00,
2013-04-12 17:57:00,73.8,70.0,29.71,WSW,247,11.0,19.0,88,0.00,,,1.51,meteohub,2013-04-12 21:57:00,
2013-04-12 18:02:00,73.6,69.8,29.71,West,267,7.0,19.0,88,0.00,,,1.51,meteohub,2013-04-12 22:02:00,
2013-04-12 18:07:00,73.4,70.0,29.71,SW,227,11.0,19.0,89,0.00,,,1.51,meteohub,2013-04-12 22:07:00,
2013-04-12 18:12:00,72.9,70.2,29.71,WSW,238,4.0,19.0,91,0.00,,,1.52,meteohub,2013-04-12 22:12:00,
2013-04-12 18:17:00,72.3,69.8,29.71,SW,228,8.0,18.0,92,0.02,,,1.52,meteohub,2013-04-12 22:17:00,
2013-04-12 18:22:00,72.1,69.6,29.71,WSW,246,4.0,18.0,92,0.02,,,1.53,meteohub,2013-04-12 22:22:00,
2013-04-12 18:27:00,72.0,69.4,29.71,WSW,247,5.0,16.0,92,0.02,,,1.53,meteohub,2013-04-12 22:27:00,
2013-04-12 18:32:00,72.0,69.4,29.70,West,276,6.0,16.0,92,0.02,,,1.53,meteohub,2013-04-12 22:32:00,
2013-04-12 18:37:00,71.8,69.3,29.71,WSW,242,6.0,16.0,92,0.02,,,1.53,meteohub,2013-04-12 22:37:00,
2013-04-12 18:43:00,71.8,69.3,29.71,WSW,251,2.0,13.0,92,0.02,,,1.53,meteohub,2013-04-12 22:43:00,
2013-04-12 18:48:00,71.6,69.1,29.71,West,268,2.0,13.0,92,0.02,,,1.53,meteohub,2013-04-12 22:48:00,
2013-04-12 18:53:00,71.6,69.1,29.71,WSW,238,6.0,13.0,92,0.02,,,1.53,meteohub,2013-04-12 22:53:00,
2013-04-12 18:58:00,71.4,68.9,29.72,WSW,257,2.0,9.0,92,0.02,,,1.53,meteohub,2013-04-12 22:58:00,
2013-04-12 19:03:00,71.4,68.9,29.71,SW,230,7.0,9.0,92,0.02,,,1.53,meteohub,2013-04-12 23:03:00,
2013-04-12 19:08:00,71.4,69.3,29.71,WSW,247,6.0,14.0,93,0.02,,,1.53,meteohub,2013-04-12 23:08:00,
2013-04-12 19:13:00,71.4,69.3,29.72,SW,231,4.0,14.0,93,0.02,,,1.53,meteohub,2013-04-12 23:13:00,
2013-04-12 19:18:00,71.2,68.7,29.71,SSW,207,4.0,16.0,92,0.00,,,1.53,meteohub,2013-04-12 23:18:00,
2013-04-12 19:23:00,71.2,68.7,29.71,West,269,3.0,16.0,92,0.00,,,1.53,meteohub,2013-04-12 23:23:00,
2013-04-12 19:28:00,71.2,68.7,29.72,WSW,254,2.0,14.0,92,0.00,,,1.53,meteohub,2013-04-12 23:28:00,
2013-04-12 19:33:00,71.1,68.5,29.72,WSW,245,8.0,14.0,92,0.00,,,1.53,meteohub,2013-04-12 23:33:00,
2013-04-12 19:38:00,71.1,68.5,29.72,SSW,210,4.0,13.0,92,0.00,,,1.53,meteohub,2013-04-12 23:38:00,
2013-04-12 19:43:00,71.1,68.5,29.72,WSW,255,5.0,13.0,92,0.00,,,1.53,meteohub,2013-04-12 23:43:00,
2013-04-12 19:48:00,71.1,68.5,29.71,SW,216,4.0,13.0,92,0.00,,,1.53,meteohub,2013-04-12 23:48:00,
2013-04-12 19:53:00,70.9,68.7,29.71,West,275,4.0,13.0,93,0.00,,,1.53,meteohub,2013-04-12 23:53:00,
2013-04-12 19:58:00,70.9,68.7,29.71,SW,233,2.0,11.0,93,0.00,,,1.53,meteohub,2013-04-12 23:58:00,
2013-04-12 20:03:00,70.7,68.5,29.70,WSW,253,5.0,11.0,93,0.00,,,1.53,meteohub,2013-04-13 00:03:00,
2013-04-12 20:08:00,70.5,68.4,29.70,WSW,238,2.0,10.0,93,0.00,,,1.53,meteohub,2013-04-13 00:08:00,
2013-04-12 20:13:00,70.5,68.4,29.70,SW,227,2.0,10.0,93,0.00,,,1.53,meteohub,2013-04-13 00:13:00,
2013-04-12 20:18:00,70.3,68.2,29.70,WSW,254,3.0,8.0,93,0.00,,,1.53,meteohub,2013-04-13 00:18:00,
2013-04-12 20:23:00,70.3,68.2,29.70,West,259,5.0,8.0,93,0.00,,,1.53,meteohub,2013-04-13 00:23:00,
2013-04-12 20:28:00,70.2,68.4,29.70,WSW,246,2.0,8.0,94,0.00,,,1.53,meteohub,2013-04-13 00:28:00,
2013-04-12 20:33:00,70.2,68.4,29.71,SW,234,0.0,8.0,94,0.00,,,1.53,meteohub,2013-04-13 00:33:00,
2013-04-12 20:38:00,70.0,68.2,29.71,WSW,244,0.0,7.0,94,0.00,,,1.53,meteohub,2013-04-13 00:38:00,
2013-04-12 20:43:00,70.0,68.2,29.72,SSW,196,2.0,7.0,94,0.00,,,1.53,meteohub,2013-04-13 00:43:00,
2013-04-12 20:48:00,70.0,68.2,29.72,SSW,207,1.0,10.0,94,0.00,,,1.53,meteohub,2013-04-13 00:48:00,
2013-04-12 20:53:00,70.2,68.0,29.73,SW,220,4.0,10.0,93,0.00,,,1.53,meteohub,2013-04-13 00:53:00,
2013-04-12 20:58:00,70.2,68.0,29.73,West,277,5.0,10.0,93,0.00,,,1.53,meteohub,2013-04-13 00:58:00,
2013-04-12 21:03:00,70.2,68.0,29.73,WSW,247,4.0,10.0,93,0.00,,,1.53,meteohub,2013-04-13 01:03:00,
2013-04-12 21:08:00,70.2,68.0,29.73,WSW,249,2.0,10.0,93,0.00,,,1.53,meteohub,2013-04-13 01:08:00,
2013-04-12 21:13:00,70.2,68.0,29.73,SW,220,3.0,10.0,93,0.00,,,1.53,meteohub,2013-04-13 01:13:00,
2013-04-12 21:18:00,70.0,67.8,29.74,SW,227,4.0,11.0,93,0.00,,,1.53,meteohub,2013-04-13 01:18:00,
2013-04-12 21:23:00,70.2,68.0,29.74,SSW,211,8.0,11.0,93,0.00,,,1.53,meteohub,2013-04-13 01:23:00,
2013-04-12 21:28:00,70.0,67.8,29.74,West,273,4.0,10.0,93,0.00,,,1.53,meteohub,2013-04-13 01:28:00,
2013-04-12 21:33:00,70.0,67.8,29.74,WSW,248,5.0,10.0,93,0.00,,,1.53,meteohub,2013-04-13 01:33:00,
2013-04-12 21:38:00,70.0,67.8,29.74,SW,229,1.0,9.0,93,0.00,,,1.53,meteohub,2013-04-13 01:38:00,
2013-04-12 21:43:00,69.8,67.6,29.74,WSW,250,3.0,9.0,93,0.00,,,1.53,meteohub,2013-04-13 01:43:00,
2013-04-12 21:48:00,69.6,67.5,29.74,WSW,244,4.0,8.0,93,0.00,,,1.53,meteohub,2013-04-13 01:48:00,
2013-04-12 21:53:00,69.6,67.5,29.74,WSW,245,2.0,8.0,93,0.00,,,1.53,meteohub,2013-04-13 01:53:00,
2013-04-12 21:58:00,69.8,67.3,29.73,WSW,249,5.0,9.0,92,0.00,,,1.53,meteohub,2013-04-13 01:58:00,
2013-04-12 22:03:00,69.8,67.3,29.73,SW,218,7.0,9.0,92,0.00,,,1.53,meteohub,2013-04-13 02:03:00,
2013-04-12 22:08:00,69.6,67.3,29.73,WSW,241,3.0,9.0,92,0.00,,,1.53,meteohub,2013-04-13 02:08:00,
2013-04-12 22:13:00,69.6,67.5,29.73,West,261,4.0,9.0,93,0.00,,,1.53,meteohub,2013-04-13 02:13:00,
2013-04-12 22:18:00,69.6,67.5,29.73,SSW,210,1.0,10.0,93,0.00,,,1.53,meteohub,2013-04-13 02:18:00,
2013-04-12 22:23:00,69.4,67.3,29.73,WSW,240,2.0,10.0,93,0.00,,,1.53,meteohub,2013-04-13 02:23:00,
2013-04-12 22:28:00,69.4,67.6,29.73,SW,233,6.0,8.0,94,0.00,,,1.53,meteohub,2013-04-13 02:28:00,
2013-04-12 22:33:00,69.3,67.5,29.73,West,275,5.0,8.0,94,0.00,,,1.53,meteohub,2013-04-13 02:33:00,
2013-04-12 22:38:00,69.3,67.5,29.73,WSW,240,1.0,8.0,94,0.00,,,1.53,meteohub,2013-04-13 02:38:00,
2013-04-12 22:43:00,69.3,67.5,29.73,West,264,3.0,8.0,94,0.00,,,1.53,meteohub,2013-04-13 02:43:00,
2013-04-12 22:48:00,69.3,67.5,29.73,WSW,244,1.0,7.0,94,0.00,,,1.53,meteohub,2013-04-13 02:48:00,
2013-04-12 22:53:00,69.1,67.3,29.73,West,261,4.0,7.0,94,0.00,,,1.53,meteohub,2013-04-13 02:53:00,
2013-04-12 22:58:00,69.1,67.3,29.73,SSW,200,0.0,7.0,94,0.00,,,1.53,meteohub,2013-04-13 02:58:00,
2013-04-12 23:03:00,69.1,67.6,29.73,West,259,3.0,7.0,95,0.00,,,1.53,meteohub,2013-04-13 03:03:00,
2013-04-12 23:08:00,69.1,67.6,29.74,SSW,198,4.0,7.0,95,0.00,,,1.53,meteohub,2013-04-13 03:08:00,
2013-04-12 23:13:00,69.1,67.6,29.74,SW,226,0.0,7.0,95,0.00,,,1.53,meteohub,2013-04-13 03:13:00,
2013-04-12 23:18:00,68.9,67.5,29.74,SW,219,2.0,7.0,95,0.00,,,1.53,meteohub,2013-04-13 03:18:00,
2013-04-12 23:23:00,68.7,67.3,29.75,SW,219,0.0,7.0,95,0.00,,,1.53,meteohub,2013-04-13 03:23:00,
2013-04-12 23:28:00,68.7,67.3,29.75,SW,227,1.0,7.0,95,0.00,,,1.53,meteohub,2013-04-13 03:28:00,
2013-04-12 23:33:00,68.7,67.3,29.74,West,263,0.0,7.0,95,0.00,,,1.53,meteohub,2013-04-13 03:33:00,
2013-04-12 23:38:00,68.7,67.3,29.74,SW,215,0.0,5.0,95,0.00,,,1.53,meteohub,2013-04-13 03:38:00,
2013-04-12 23:43:00,68.5,67.1,29.74,WSW,242,0.0,5.0,95,0.00,,,1.53,meteohub,2013-04-13 03:43:00,
2013-04-12 23:48:00,68.5,67.1,29.75,WSW,252,3.0,7.0,95,0.00,,,1.53,meteohub,2013-04-13 03:48:00,
2013-04-12 23:53:00,68.5,67.1,29.74,SW,236,2.0,7.0,95,0.00,,,1.53,meteohub,2013-04-13 03:53:00,
2013-04-12 23:58:00,68.5,67.1,29.74,WSW,249,1.0,7.0,95,0.00,,,1.53,meteohub,2013-04-13 03:58:00,